sensor_id;sensor_type;location;lat;lon;timestamp;P1;durP1;ratioP1;P2;durP2;ratioP2
4460;SDS011;2243;48.812;9.232;2022-09-14T00:00:18;4.67;;;3.63;;
4460;SDS011;2243;48.812;9.232;2022-09-14T00:02:49;5.23;;;3.67;;
4460;SDS011;2243;48.812;9.232;2022-09-14T00:05:20;4.93;;;3.60;;
4460;SDS011;2243;48.812;9.232;2022-09-14T00:07:51;9.73;;;3.67;;
4460;SDS011;2243;48.812;9.232;2022-09-14T00:10:22;6.17;;;3.97;;
4460;SDS011;2243;48.812;9.232;2022-09-14T00:12:53;4.20;;;3.40;;
4460;SDS011;2243;48.812;9.232;2022-09-14T00:15:24;6.87;;;4.63;;
4460;SDS011;2243;48.812;9.232;2022-09-14T00:17:58;3.93;;;3.57;;
4460;SDS011;2243;48.812;9.232;2022-09-14T00:20:29;4.33;;;4.03;;
4460;SDS011;2243;48.812;9.232;2022-09-14T00:23:01;5.83;;;4.00;;
4460;SDS011;2243;48.812;9.232;2022-09-14T00:25:32;7.97;;;4.83;;
4460;SDS011;2243;48.812;9.232;2022-09-14T00:28:03;13.60;;;4.27;;
4460;SDS011;2243;48.812;9.232;2022-09-14T00:30:34;4.83;;;4.33;;
4460;SDS011;2243;48.812;9.232;2022-09-14T00:33:11;7.37;;;4.20;;
4460;SDS011;2243;48.812;9.232;2022-09-14T00:35:42;10.73;;;4.83;;
4460;SDS011;2243;48.812;9.232;2022-09-14T00:38:13;4.00;;;3.70;;
4460;SDS011;2243;48.812;9.232;2022-09-14T00:40:44;11.50;;;4.27;;
4460;SDS011;2243;48.812;9.232;2022-09-14T00:43:26;9.60;;;4.40;;
4460;SDS011;2243;48.812;9.232;2022-09-14T00:45:58;9.63;;;4.10;;
4460;SDS011;2243;48.812;9.232;2022-09-14T00:48:32;5.10;;;4.10;;
4460;SDS011;2243;48.812;9.232;2022-09-14T00:51:03;3.90;;;3.60;;
4460;SDS011;2243;48.812;9.232;2022-09-14T00:53:34;12.23;;;3.90;;
4460;SDS011;2243;48.812;9.232;2022-09-14T00:56:05;6.17;;;4.80;;
4460;SDS011;2243;48.812;9.232;2022-09-14T00:58:37;4.63;;;4.20;;
4460;SDS011;2243;48.812;9.232;2022-09-14T01:01:08;4.20;;;3.87;;
4460;SDS011;2243;48.812;9.232;2022-09-14T01:03:39;7.37;;;4.83;;
4460;SDS011;2243;48.812;9.232;2022-09-14T01:09:40;5.10;;;4.47;;
4460;SDS011;2243;48.812;9.232;2022-09-14T01:15:30;5.20;;;4.70;;
4460;SDS011;2243;48.812;9.232;2022-09-14T01:18:39;6.57;;;4.07;;
4460;SDS011;2243;48.812;9.232;2022-09-14T01:23:59;6.10;;;4.67;;
4460;SDS011;2243;48.812;9.232;2022-09-14T01:29:32;5.17;;;4.33;;
4460;SDS011;2243;48.812;9.232;2022-09-14T01:32:26;5.87;;;4.40;;
4460;SDS011;2243;48.812;9.232;2022-09-14T01:37:57;24.10;;;8.00;;
4460;SDS011;2243;48.812;9.232;2022-09-14T01:40:34;12.67;;;4.23;;
4460;SDS011;2243;48.812;9.232;2022-09-14T01:43:13;7.03;;;3.40;;
4460;SDS011;2243;48.812;9.232;2022-09-14T01:45:56;4.73;;;4.23;;
4460;SDS011;2243;48.812;9.232;2022-09-14T01:48:49;8.03;;;4.27;;
4460;SDS011;2243;48.812;9.232;2022-09-14T01:51:51;6.80;;;3.10;;
4460;SDS011;2243;48.812;9.232;2022-09-14T01:54:43;3.77;;;2.97;;
4460;SDS011;2243;48.812;9.232;2022-09-14T01:57:28;6.70;;;3.70;;
4460;SDS011;2243;48.812;9.232;2022-09-14T02:00:09;5.80;;;3.83;;
4460;SDS011;2243;48.812;9.232;2022-09-14T02:02:46;6.03;;;3.93;;
4460;SDS011;2243;48.812;9.232;2022-09-14T02:05:55;6.80;;;4.07;;
4460;SDS011;2243;48.812;9.232;2022-09-14T02:08:28;9.70;;;4.70;;
4460;SDS011;2243;48.812;9.232;2022-09-14T02:11:00;5.40;;;3.90;;
4460;SDS011;2243;48.812;9.232;2022-09-14T02:13:31;7.13;;;3.17;;
4460;SDS011;2243;48.812;9.232;2022-09-14T02:16:02;7.13;;;4.60;;
4460;SDS011;2243;48.812;9.232;2022-09-14T02:18:34;5.33;;;3.70;;
4460;SDS011;2243;48.812;9.232;2022-09-14T02:21:10;4.13;;;3.80;;
4460;SDS011;2243;48.812;9.232;2022-09-14T02:23:45;6.37;;;4.07;;
4460;SDS011;2243;48.812;9.232;2022-09-14T02:26:18;9.10;;;4.07;;
4460;SDS011;2243;48.812;9.232;2022-09-14T02:28:51;4.73;;;3.57;;
4460;SDS011;2243;48.812;9.232;2022-09-14T02:37:29;8.10;;;4.07;;
4460;SDS011;2243;48.812;9.232;2022-09-14T02:49:11;6.23;;;3.93;;
4460;SDS011;2243;48.812;9.232;2022-09-14T02:52:00;3.57;;;3.20;;
4460;SDS011;2243;48.812;9.232;2022-09-14T02:54:59;6.60;;;4.17;;
4460;SDS011;2243;48.812;9.232;2022-09-14T03:00:47;5.50;;;4.60;;
4460;SDS011;2243;48.812;9.232;2022-09-14T03:03:20;4.90;;;4.20;;
4460;SDS011;2243;48.812;9.232;2022-09-14T03:05:51;4.30;;;4.00;;
4460;SDS011;2243;48.812;9.232;2022-09-14T03:08:22;10.13;;;4.20;;
4460;SDS011;2243;48.812;9.232;2022-09-14T03:10:54;8.40;;;4.80;;
4460;SDS011;2243;48.812;9.232;2022-09-14T03:13:26;7.43;;;4.50;;
4460;SDS011;2243;48.812;9.232;2022-09-14T03:15:56;4.77;;;4.30;;
4460;SDS011;2243;48.812;9.232;2022-09-14T03:18:27;6.67;;;4.70;;
4460;SDS011;2243;48.812;9.232;2022-09-14T03:21:02;6.07;;;4.10;;
4460;SDS011;2243;48.812;9.232;2022-09-14T03:23:45;6.47;;;4.37;;
4460;SDS011;2243;48.812;9.232;2022-09-14T03:26:20;4.60;;;4.20;;
4460;SDS011;2243;48.812;9.232;2022-09-14T03:28:54;4.23;;;3.70;;
4460;SDS011;2243;48.812;9.232;2022-09-14T03:31:27;7.00;;;4.73;;
4460;SDS011;2243;48.812;9.232;2022-09-14T03:33:59;7.80;;;4.40;;
4460;SDS011;2243;48.812;9.232;2022-09-14T03:36:31;4.23;;;3.83;;
4460;SDS011;2243;48.812;9.232;2022-09-14T03:39:02;10.57;;;4.33;;
4460;SDS011;2243;48.812;9.232;2022-09-14T03:41:33;6.87;;;4.57;;
4460;SDS011;2243;48.812;9.232;2022-09-14T03:44:04;5.23;;;4.47;;
4460;SDS011;2243;48.812;9.232;2022-09-14T03:46:35;6.50;;;5.10;;
4460;SDS011;2243;48.812;9.232;2022-09-14T03:49:06;8.77;;;5.13;;
4460;SDS011;2243;48.812;9.232;2022-09-14T03:51:38;8.60;;;4.93;;
4460;SDS011;2243;48.812;9.232;2022-09-14T03:54:09;8.13;;;5.23;;
4460;SDS011;2243;48.812;9.232;2022-09-14T03:56:40;10.13;;;4.80;;
4460;SDS011;2243;48.812;9.232;2022-09-14T03:59:11;6.23;;;5.70;;
4460;SDS011;2243;48.812;9.232;2022-09-14T04:01:41;9.17;;;5.47;;
4460;SDS011;2243;48.812;9.232;2022-09-14T04:04:13;8.07;;;6.17;;
4460;SDS011;2243;48.812;9.232;2022-09-14T04:06:45;6.07;;;4.43;;
4460;SDS011;2243;48.812;9.232;2022-09-14T04:09:16;6.00;;;5.30;;
4460;SDS011;2243;48.812;9.232;2022-09-14T04:11:48;5.07;;;4.67;;
4460;SDS011;2243;48.812;9.232;2022-09-14T04:14:19;6.00;;;5.57;;
4460;SDS011;2243;48.812;9.232;2022-09-14T04:16:50;6.07;;;4.43;;
4460;SDS011;2243;48.812;9.232;2022-09-14T04:19:21;8.10;;;5.03;;
4460;SDS011;2243;48.812;9.232;2022-09-14T04:21:51;6.07;;;5.00;;
4460;SDS011;2243;48.812;9.232;2022-09-14T04:24:22;6.70;;;4.80;;
4460;SDS011;2243;48.812;9.232;2022-09-14T04:26:59;5.43;;;4.90;;
4460;SDS011;2243;48.812;9.232;2022-09-14T04:29:30;5.40;;;4.73;;
4460;SDS011;2243;48.812;9.232;2022-09-14T04:32:01;6.33;;;5.63;;
4460;SDS011;2243;48.812;9.232;2022-09-14T04:34:32;6.27;;;5.40;;
4460;SDS011;2243;48.812;9.232;2022-09-14T04:37:03;5.80;;;5.27;;
4460;SDS011;2243;48.812;9.232;2022-09-14T04:39:34;6.50;;;5.90;;
4460;SDS011;2243;48.812;9.232;2022-09-14T04:42:05;8.47;;;6.10;;
4460;SDS011;2243;48.812;9.232;2022-09-14T04:44:36;8.80;;;7.13;;
4460;SDS011;2243;48.812;9.232;2022-09-14T04:47:07;9.40;;;7.37;;
4460;SDS011;2243;48.812;9.232;2022-09-14T04:49:38;11.40;;;7.10;;
4460;SDS011;2243;48.812;9.232;2022-09-14T04:52:09;8.43;;;7.53;;
4460;SDS011;2243;48.812;9.232;2022-09-14T04:54:40;9.33;;;7.90;;
4460;SDS011;2243;48.812;9.232;2022-09-14T04:57:11;12.00;;;9.30;;
4460;SDS011;2243;48.812;9.232;2022-09-14T04:59:42;14.20;;;8.77;;
4460;SDS011;2243;48.812;9.232;2022-09-14T05:02:13;10.63;;;9.53;;
4460;SDS011;2243;48.812;9.232;2022-09-14T05:04:45;13.37;;;10.10;;
4460;SDS011;2243;48.812;9.232;2022-09-14T05:07:16;10.50;;;9.27;;
4460;SDS011;2243;48.812;9.232;2022-09-14T05:09:47;9.50;;;8.70;;
4460;SDS011;2243;48.812;9.232;2022-09-14T05:12:18;12.97;;;9.37;;
4460;SDS011;2243;48.812;9.232;2022-09-14T05:14:48;9.87;;;8.93;;
4460;SDS011;2243;48.812;9.232;2022-09-14T05:17:20;10.53;;;9.33;;
4460;SDS011;2243;48.812;9.232;2022-09-14T05:19:51;14.77;;;9.33;;
4460;SDS011;2243;48.812;9.232;2022-09-14T05:22:24;12.40;;;8.40;;
4460;SDS011;2243;48.812;9.232;2022-09-14T05:24:55;10.00;;;8.90;;
4460;SDS011;2243;48.812;9.232;2022-09-14T05:27:26;20.00;;;10.50;;
4460;SDS011;2243;48.812;9.232;2022-09-14T05:29:57;8.77;;;7.97;;
4460;SDS011;2243;48.812;9.232;2022-09-14T05:32:28;11.30;;;9.40;;
4460;SDS011;2243;48.812;9.232;2022-09-14T05:34:59;11.80;;;9.50;;
4460;SDS011;2243;48.812;9.232;2022-09-14T05:37:30;9.67;;;8.40;;
4460;SDS011;2243;48.812;9.232;2022-09-14T05:40:01;13.60;;;9.80;;
4460;SDS011;2243;48.812;9.232;2022-09-14T05:42:33;10.90;;;9.20;;
4460;SDS011;2243;48.812;9.232;2022-09-14T05:45:04;10.20;;;8.70;;
4460;SDS011;2243;48.812;9.232;2022-09-14T05:47:36;10.20;;;8.60;;
4460;SDS011;2243;48.812;9.232;2022-09-14T05:50:08;19.20;;;9.00;;
4460;SDS011;2243;48.812;9.232;2022-09-14T05:52:39;8.73;;;7.87;;
4460;SDS011;2243;48.812;9.232;2022-09-14T05:55:10;14.63;;;9.60;;
4460;SDS011;2243;48.812;9.232;2022-09-14T05:57:41;15.13;;;9.27;;
4460;SDS011;2243;48.812;9.232;2022-09-14T06:00:12;14.17;;;9.53;;
4460;SDS011;2243;48.812;9.232;2022-09-14T06:02:47;20.53;;;10.00;;
4460;SDS011;2243;48.812;9.232;2022-09-14T06:05:20;12.17;;;10.47;;
4460;SDS011;2243;48.812;9.232;2022-09-14T06:07:54;14.13;;;11.30;;
4460;SDS011;2243;48.812;9.232;2022-09-14T06:10:25;17.80;;;10.50;;
4460;SDS011;2243;48.812;9.232;2022-09-14T06:12:58;8.63;;;7.80;;
4460;SDS011;2243;48.812;9.232;2022-09-14T06:15:29;20.60;;;9.00;;
4460;SDS011;2243;48.812;9.232;2022-09-14T06:18:02;13.93;;;9.67;;
4460;SDS011;2243;48.812;9.232;2022-09-14T06:20:33;16.03;;;9.97;;
4460;SDS011;2243;48.812;9.232;2022-09-14T06:23:04;10.93;;;9.87;;
4460;SDS011;2243;48.812;9.232;2022-09-14T06:25:35;18.23;;;9.30;;
4460;SDS011;2243;48.812;9.232;2022-09-14T06:28:06;11.03;;;9.83;;
4460;SDS011;2243;48.812;9.232;2022-09-14T06:30:40;10.87;;;9.77;;
4460;SDS011;2243;48.812;9.232;2022-09-14T06:33:13;15.00;;;9.40;;
4460;SDS011;2243;48.812;9.232;2022-09-14T06:35:57;16.43;;;9.70;;
4460;SDS011;2243;48.812;9.232;2022-09-14T06:38:31;11.77;;;10.57;;
4460;SDS011;2243;48.812;9.232;2022-09-14T06:41:03;10.87;;;9.47;;
4460;SDS011;2243;48.812;9.232;2022-09-14T06:43:36;10.60;;;8.70;;
4460;SDS011;2243;48.812;9.232;2022-09-14T06:46:11;9.97;;;8.97;;
4460;SDS011;2243;48.812;9.232;2022-09-14T06:48:46;13.03;;;9.53;;
4460;SDS011;2243;48.812;9.232;2022-09-14T06:54:09;12.60;;;9.60;;
4460;SDS011;2243;48.812;9.232;2022-09-14T06:56:43;13.20;;;10.17;;
4460;SDS011;2243;48.812;9.232;2022-09-14T06:59:15;16.33;;;10.47;;
4460;SDS011;2243;48.812;9.232;2022-09-14T07:01:47;15.93;;;10.27;;
4460;SDS011;2243;48.812;9.232;2022-09-14T07:04:19;13.50;;;10.00;;
4460;SDS011;2243;48.812;9.232;2022-09-14T07:06:50;11.40;;;10.20;;
4460;SDS011;2243;48.812;9.232;2022-09-14T07:09:21;11.03;;;9.70;;
4460;SDS011;2243;48.812;9.232;2022-09-14T07:11:52;11.37;;;9.50;;
4460;SDS011;2243;48.812;9.232;2022-09-14T07:14:23;16.00;;;8.83;;
4460;SDS011;2243;48.812;9.232;2022-09-14T07:16:59;12.63;;;9.20;;
4460;SDS011;2243;48.812;9.232;2022-09-14T07:19:30;13.20;;;8.60;;
4460;SDS011;2243;48.812;9.232;2022-09-14T07:22:01;16.40;;;7.93;;
4460;SDS011;2243;48.812;9.232;2022-09-14T07:24:32;9.70;;;8.07;;
4460;SDS011;2243;48.812;9.232;2022-09-14T07:27:03;10.33;;;8.00;;
4460;SDS011;2243;48.812;9.232;2022-09-14T07:29:34;8.23;;;7.30;;
4460;SDS011;2243;48.812;9.232;2022-09-14T07:32:04;9.90;;;6.40;;
4460;SDS011;2243;48.812;9.232;2022-09-14T07:34:35;6.80;;;6.30;;
4460;SDS011;2243;48.812;9.232;2022-09-14T07:37:06;8.10;;;7.13;;
4460;SDS011;2243;48.812;9.232;2022-09-14T07:39:37;9.17;;;6.60;;
4460;SDS011;2243;48.812;9.232;2022-09-14T07:42:08;6.03;;;5.53;;
4460;SDS011;2243;48.812;9.232;2022-09-14T07:44:39;6.90;;;6.30;;
4460;SDS011;2243;48.812;9.232;2022-09-14T07:47:10;8.70;;;5.60;;
4460;SDS011;2243;48.812;9.232;2022-09-14T07:49:41;7.43;;;6.53;;
4460;SDS011;2243;48.812;9.232;2022-09-14T07:52:12;6.30;;;5.70;;
4460;SDS011;2243;48.812;9.232;2022-09-14T07:54:42;7.57;;;5.20;;
4460;SDS011;2243;48.812;9.232;2022-09-14T07:57:13;6.80;;;5.80;;
4460;SDS011;2243;48.812;9.232;2022-09-14T07:59:45;6.20;;;5.77;;
4460;SDS011;2243;48.812;9.232;2022-09-14T08:02:16;5.30;;;4.90;;
4460;SDS011;2243;48.812;9.232;2022-09-14T08:04:47;12.00;;;6.53;;
4460;SDS011;2243;48.812;9.232;2022-09-14T08:07:18;5.70;;;4.60;;
4460;SDS011;2243;48.812;9.232;2022-09-14T08:09:49;6.33;;;5.13;;
4460;SDS011;2243;48.812;9.232;2022-09-14T08:12:20;7.60;;;5.37;;
4460;SDS011;2243;48.812;9.232;2022-09-14T08:14:51;5.07;;;4.67;;
4460;SDS011;2243;48.812;9.232;2022-09-14T08:17:22;4.93;;;4.63;;
4460;SDS011;2243;48.812;9.232;2022-09-14T08:19:53;12.90;;;4.80;;
4460;SDS011;2243;48.812;9.232;2022-09-14T08:22:25;10.23;;;5.40;;
4460;SDS011;2243;48.812;9.232;2022-09-14T08:24:55;7.67;;;4.77;;
4460;SDS011;2243;48.812;9.232;2022-09-14T08:27:26;7.13;;;4.63;;
4460;SDS011;2243;48.812;9.232;2022-09-14T08:29:57;7.03;;;4.47;;
4460;SDS011;2243;48.812;9.232;2022-09-14T08:32:31;5.00;;;4.70;;
4460;SDS011;2243;48.812;9.232;2022-09-14T08:35:01;5.00;;;4.50;;
4460;SDS011;2243;48.812;9.232;2022-09-14T08:37:33;4.80;;;4.40;;
4460;SDS011;2243;48.812;9.232;2022-09-14T08:40:04;4.60;;;4.30;;
4460;SDS011;2243;48.812;9.232;2022-09-14T08:42:35;7.57;;;4.20;;
4460;SDS011;2243;48.812;9.232;2022-09-14T08:45:09;4.60;;;4.30;;
4460;SDS011;2243;48.812;9.232;2022-09-14T08:47:44;4.90;;;4.30;;
4460;SDS011;2243;48.812;9.232;2022-09-14T08:50:15;4.77;;;4.37;;
4460;SDS011;2243;48.812;9.232;2022-09-14T08:52:50;5.60;;;4.20;;
4460;SDS011;2243;48.812;9.232;2022-09-14T09:11:54;4.57;;;4.17;;
4460;SDS011;2243;48.812;9.232;2022-09-14T09:14:37;5.47;;;3.90;;
4460;SDS011;2243;48.812;9.232;2022-09-14T09:17:15;5.83;;;4.63;;
4460;SDS011;2243;48.812;9.232;2022-09-14T09:25:52;4.93;;;3.83;;
4460;SDS011;2243;48.812;9.232;2022-09-14T09:28:33;3.17;;;2.97;;
4460;SDS011;2243;48.812;9.232;2022-09-14T09:31:11;4.40;;;3.53;;
4460;SDS011;2243;48.812;9.232;2022-09-14T09:33:45;3.60;;;3.03;;
4460;SDS011;2243;48.812;9.232;2022-09-14T09:36:18;5.87;;;3.50;;
4460;SDS011;2243;48.812;9.232;2022-09-14T09:38:49;5.27;;;3.13;;
4460;SDS011;2243;48.812;9.232;2022-09-14T09:46:47;3.80;;;3.30;;
4460;SDS011;2243;48.812;9.232;2022-09-14T09:49:31;5.13;;;3.30;;
4460;SDS011;2243;48.812;9.232;2022-09-14T09:52:10;3.20;;;3.00;;
4460;SDS011;2243;48.812;9.232;2022-09-14T09:54:50;3.67;;;3.33;;
4460;SDS011;2243;48.812;9.232;2022-09-14T10:00:10;3.33;;;3.03;;
4460;SDS011;2243;48.812;9.232;2022-09-14T10:02:50;6.00;;;3.00;;
4460;SDS011;2243;48.812;9.232;2022-09-14T10:05:27;3.80;;;2.87;;
4460;SDS011;2243;48.812;9.232;2022-09-14T10:08:01;4.90;;;3.20;;
4460;SDS011;2243;48.812;9.232;2022-09-14T10:10:41;2.63;;;2.53;;
4460;SDS011;2243;48.812;9.232;2022-09-14T10:13:33;3.47;;;2.80;;
4460;SDS011;2243;48.812;9.232;2022-09-14T10:16:15;6.37;;;3.57;;
4460;SDS011;2243;48.812;9.232;2022-09-14T10:18:49;3.53;;;2.97;;
4460;SDS011;2243;48.812;9.232;2022-09-14T10:21:22;3.43;;;3.13;;
4460;SDS011;2243;48.812;9.232;2022-09-14T10:24:05;3.43;;;3.03;;
4460;SDS011;2243;48.812;9.232;2022-09-14T10:26:49;6.07;;;3.37;;
4460;SDS011;2243;48.812;9.232;2022-09-14T10:29:39;5.33;;;2.70;;
4460;SDS011;2243;48.812;9.232;2022-09-14T10:32:17;2.87;;;2.67;;
4460;SDS011;2243;48.812;9.232;2022-09-14T10:34:53;3.77;;;3.37;;
4460;SDS011;2243;48.812;9.232;2022-09-14T10:37:30;9.23;;;3.47;;
4460;SDS011;2243;48.812;9.232;2022-09-14T10:40:17;3.30;;;3.00;;
4460;SDS011;2243;48.812;9.232;2022-09-14T10:43:02;3.23;;;3.10;;
4460;SDS011;2243;48.812;9.232;2022-09-14T10:45:55;2.87;;;2.67;;
4460;SDS011;2243;48.812;9.232;2022-09-14T10:48:39;3.20;;;2.97;;
4460;SDS011;2243;48.812;9.232;2022-09-14T10:51:40;3.10;;;2.90;;
4460;SDS011;2243;48.812;9.232;2022-09-14T11:01:07;2.77;;;2.60;;
4460;SDS011;2243;48.812;9.232;2022-09-14T11:07:07;4.10;;;2.70;;
4460;SDS011;2243;48.812;9.232;2022-09-14T11:27:46;4.33;;;2.50;;
4460;SDS011;2243;48.812;9.232;2022-09-14T11:30:36;2.97;;;2.87;;
4460;SDS011;2243;48.812;9.232;2022-09-14T11:33:26;4.80;;;2.63;;
4460;SDS011;2243;48.812;9.232;2022-09-14T11:36:08;7.13;;;2.80;;
4460;SDS011;2243;48.812;9.232;2022-09-14T11:38:53;3.23;;;2.90;;
4460;SDS011;2243;48.812;9.232;2022-09-14T11:41:53;4.33;;;2.67;;
4460;SDS011;2243;48.812;9.232;2022-09-14T11:44:38;2.30;;;2.20;;
4460;SDS011;2243;48.812;9.232;2022-09-14T11:47:14;7.50;;;2.70;;
4460;SDS011;2243;48.812;9.232;2022-09-14T11:50:01;2.70;;;2.37;;
4460;SDS011;2243;48.812;9.232;2022-09-14T11:55:39;2.97;;;2.30;;
4460;SDS011;2243;48.812;9.232;2022-09-14T11:58:19;2.90;;;2.50;;
4460;SDS011;2243;48.812;9.232;2022-09-14T12:11:54;3.13;;;2.50;;
4460;SDS011;2243;48.812;9.232;2022-09-14T12:14:35;8.80;;;3.60;;
4460;SDS011;2243;48.812;9.232;2022-09-14T12:23:06;2.83;;;2.73;;
4460;SDS011;2243;48.812;9.232;2022-09-14T12:31:10;2.43;;;2.33;;
4460;SDS011;2243;48.812;9.232;2022-09-14T12:36:58;3.10;;;2.70;;
4460;SDS011;2243;48.812;9.232;2022-09-14T12:46:07;5.90;;;2.87;;
4460;SDS011;2243;48.812;9.232;2022-09-14T12:48:54;3.23;;;2.83;;
4460;SDS011;2243;48.812;9.232;2022-09-14T12:51:38;5.70;;;3.23;;
4460;SDS011;2243;48.812;9.232;2022-09-14T12:57:15;5.97;;;2.83;;
4460;SDS011;2243;48.812;9.232;2022-09-14T13:05:41;3.60;;;3.30;;
4460;SDS011;2243;48.812;9.232;2022-09-14T13:08:16;4.23;;;3.17;;
4460;SDS011;2243;48.812;9.232;2022-09-14T13:10:52;5.23;;;3.23;;
4460;SDS011;2243;48.812;9.232;2022-09-14T13:13:24;7.43;;;3.70;;
4460;SDS011;2243;48.812;9.232;2022-09-14T13:16:01;6.17;;;3.93;;
4460;SDS011;2243;48.812;9.232;2022-09-14T13:18:35;3.30;;;3.03;;
4460;SDS011;2243;48.812;9.232;2022-09-14T13:21:18;4.43;;;3.77;;
4460;SDS011;2243;48.812;9.232;2022-09-14T13:23:53;3.50;;;3.30;;
4460;SDS011;2243;48.812;9.232;2022-09-14T13:26:27;7.40;;;3.73;;
4460;SDS011;2243;48.812;9.232;2022-09-14T13:29:00;6.20;;;3.50;;
4460;SDS011;2243;48.812;9.232;2022-09-14T13:31:33;3.57;;;3.37;;
4460;SDS011;2243;48.812;9.232;2022-09-14T13:34:12;4.60;;;3.57;;
4460;SDS011;2243;48.812;9.232;2022-09-14T13:37:00;3.40;;;3.10;;
4460;SDS011;2243;48.812;9.232;2022-09-14T13:39:32;3.03;;;2.80;;
4460;SDS011;2243;48.812;9.232;2022-09-14T13:42:07;4.23;;;3.23;;
4460;SDS011;2243;48.812;9.232;2022-09-14T13:44:39;4.40;;;3.67;;
4460;SDS011;2243;48.812;9.232;2022-09-14T13:47:18;13.93;;;3.20;;
4460;SDS011;2243;48.812;9.232;2022-09-14T13:49:52;4.07;;;3.67;;
4460;SDS011;2243;48.812;9.232;2022-09-14T13:55:19;3.90;;;3.60;;
4460;SDS011;2243;48.812;9.232;2022-09-14T14:01:12;3.90;;;3.40;;
4460;SDS011;2243;48.812;9.232;2022-09-14T14:03:40;3.93;;;2.80;;
4460;SDS011;2243;48.812;9.232;2022-09-14T14:08:58;2.37;;;2.27;;
4460;SDS011;2243;48.812;9.232;2022-09-14T14:11:36;3.00;;;2.70;;
4460;SDS011;2243;48.812;9.232;2022-09-14T14:20:29;4.50;;;2.60;;
4460;SDS011;2243;48.812;9.232;2022-09-14T14:25:45;2.63;;;2.43;;
4460;SDS011;2243;48.812;9.232;2022-09-14T14:28:27;3.10;;;2.80;;
4460;SDS011;2243;48.812;9.232;2022-09-14T14:31:00;3.47;;;2.30;;
4460;SDS011;2243;48.812;9.232;2022-09-14T14:33:43;2.67;;;2.57;;
4460;SDS011;2243;48.812;9.232;2022-09-14T14:36:19;2.60;;;2.40;;
4460;SDS011;2243;48.812;9.232;2022-09-14T14:38:51;3.37;;;2.40;;
4460;SDS011;2243;48.812;9.232;2022-09-14T14:41:22;3.40;;;1.83;;
4460;SDS011;2243;48.812;9.232;2022-09-14T14:43:52;2.07;;;1.93;;
4460;SDS011;2243;48.812;9.232;2022-09-14T14:46:24;2.60;;;2.40;;
4460;SDS011;2243;48.812;9.232;2022-09-14T14:48:55;2.30;;;2.20;;
4460;SDS011;2243;48.812;9.232;2022-09-14T14:51:25;1.93;;;1.83;;
4460;SDS011;2243;48.812;9.232;2022-09-14T14:53:56;1.80;;;1.70;;
4460;SDS011;2243;48.812;9.232;2022-09-14T14:56:27;4.50;;;2.37;;
4460;SDS011;2243;48.812;9.232;2022-09-14T14:58:58;4.10;;;2.53;;
4460;SDS011;2243;48.812;9.232;2022-09-14T15:01:31;2.50;;;2.30;;
4460;SDS011;2243;48.812;9.232;2022-09-14T15:04:02;4.33;;;2.30;;
4460;SDS011;2243;48.812;9.232;2022-09-14T15:06:33;3.43;;;1.87;;
4460;SDS011;2243;48.812;9.232;2022-09-14T15:09:21;2.70;;;2.50;;
4460;SDS011;2243;48.812;9.232;2022-09-14T15:11:55;4.20;;;2.13;;
4460;SDS011;2243;48.812;9.232;2022-09-14T15:14:26;3.47;;;2.30;;
4460;SDS011;2243;48.812;9.232;2022-09-14T15:16:57;2.50;;;2.30;;
4460;SDS011;2243;48.812;9.232;2022-09-14T15:19:29;2.33;;;2.10;;
4460;SDS011;2243;48.812;9.232;2022-09-14T15:22:00;3.10;;;2.53;;
4460;SDS011;2243;48.812;9.232;2022-09-14T15:24:31;2.50;;;2.30;;
4460;SDS011;2243;48.812;9.232;2022-09-14T15:27:02;2.37;;;2.27;;
4460;SDS011;2243;48.812;9.232;2022-09-14T15:29:34;2.23;;;2.13;;
4460;SDS011;2243;48.812;9.232;2022-09-14T15:32:05;1.70;;;1.60;;
4460;SDS011;2243;48.812;9.232;2022-09-14T15:34:36;2.13;;;1.93;;
4460;SDS011;2243;48.812;9.232;2022-09-14T15:37:07;1.60;;;1.50;;
4460;SDS011;2243;48.812;9.232;2022-09-14T15:39:38;1.83;;;1.73;;
4460;SDS011;2243;48.812;9.232;2022-09-14T15:42:09;1.37;;;1.37;;
4460;SDS011;2243;48.812;9.232;2022-09-14T15:44:40;1.83;;;1.37;;
4460;SDS011;2243;48.812;9.232;2022-09-14T15:47:12;2.60;;;1.50;;
4460;SDS011;2243;48.812;9.232;2022-09-14T15:49:43;1.70;;;1.60;;
4460;SDS011;2243;48.812;9.232;2022-09-14T15:52:14;2.30;;;1.30;;
4460;SDS011;2243;48.812;9.232;2022-09-14T15:54:45;1.07;;;1.07;;
4460;SDS011;2243;48.812;9.232;2022-09-14T15:57:17;2.30;;;1.10;;
4460;SDS011;2243;48.812;9.232;2022-09-14T15:59:48;2.40;;;1.20;;
4460;SDS011;2243;48.812;9.232;2022-09-14T16:02:19;1.30;;;1.20;;
4460;SDS011;2243;48.812;9.232;2022-09-14T16:04:51;1.40;;;1.10;;
4460;SDS011;2243;48.812;9.232;2022-09-14T16:07:22;1.63;;;1.10;;
4460;SDS011;2243;48.812;9.232;2022-09-14T16:09:53;1.93;;;1.30;;
4460;SDS011;2243;48.812;9.232;2022-09-14T16:12:28;1.50;;;1.27;;
4460;SDS011;2243;48.812;9.232;2022-09-14T16:14:59;1.30;;;1.20;;
4460;SDS011;2243;48.812;9.232;2022-09-14T16:17:30;1.43;;;1.33;;
4460;SDS011;2243;48.812;9.232;2022-09-14T16:20:02;3.00;;;1.43;;
4460;SDS011;2243;48.812;9.232;2022-09-14T16:22:34;1.27;;;1.17;;
4460;SDS011;2243;48.812;9.232;2022-09-14T16:25:05;2.20;;;1.30;;
4460;SDS011;2243;48.812;9.232;2022-09-14T16:27:36;1.43;;;1.33;;
4460;SDS011;2243;48.812;9.232;2022-09-14T16:30:07;7.20;;;1.43;;
4460;SDS011;2243;48.812;9.232;2022-09-14T16:32:39;1.77;;;1.67;;
4460;SDS011;2243;48.812;9.232;2022-09-14T16:35:10;2.07;;;1.20;;
4460;SDS011;2243;48.812;9.232;2022-09-14T16:37:41;1.20;;;1.20;;
4460;SDS011;2243;48.812;9.232;2022-09-14T16:40:12;1.90;;;1.67;;
4460;SDS011;2243;48.812;9.232;2022-09-14T16:42:43;1.63;;;1.47;;
4460;SDS011;2243;48.812;9.232;2022-09-14T16:45:16;1.40;;;1.30;;
4460;SDS011;2243;48.812;9.232;2022-09-14T16:47:47;1.70;;;1.60;;
4460;SDS011;2243;48.812;9.232;2022-09-14T16:50:18;1.37;;;0.97;;
4460;SDS011;2243;48.812;9.232;2022-09-14T16:52:49;1.60;;;1.50;;
4460;SDS011;2243;48.812;9.232;2022-09-14T16:55:20;2.47;;;1.27;;
4460;SDS011;2243;48.812;9.232;2022-09-14T16:57:51;1.67;;;1.57;;
4460;SDS011;2243;48.812;9.232;2022-09-14T17:00:22;1.70;;;1.13;;
4460;SDS011;2243;48.812;9.232;2022-09-14T17:02:53;1.60;;;1.50;;
4460;SDS011;2243;48.812;9.232;2022-09-14T17:05:23;3.20;;;3.00;;
4460;SDS011;2243;48.812;9.232;2022-09-14T17:07:55;2.20;;;1.43;;
4460;SDS011;2243;48.812;9.232;2022-09-14T17:10:26;2.30;;;2.00;;
4460;SDS011;2243;48.812;9.232;2022-09-14T17:12:57;3.70;;;1.57;;
4460;SDS011;2243;48.812;9.232;2022-09-14T17:15:28;1.47;;;1.37;;
4460;SDS011;2243;48.812;9.232;2022-09-14T17:18:00;1.50;;;1.43;;
4460;SDS011;2243;48.812;9.232;2022-09-14T17:20:31;1.50;;;1.40;;
4460;SDS011;2243;48.812;9.232;2022-09-14T17:23:01;1.50;;;1.40;;
4460;SDS011;2243;48.812;9.232;2022-09-14T17:25:32;1.20;;;1.20;;
4460;SDS011;2243;48.812;9.232;2022-09-14T17:28:03;3.13;;;1.87;;
4460;SDS011;2243;48.812;9.232;2022-09-14T17:30:34;1.63;;;1.53;;
4460;SDS011;2243;48.812;9.232;2022-09-14T17:33:05;2.13;;;1.60;;
4460;SDS011;2243;48.812;9.232;2022-09-14T17:35:36;1.40;;;1.30;;
4460;SDS011;2243;48.812;9.232;2022-09-14T17:38:07;2.13;;;1.47;;
4460;SDS011;2243;48.812;9.232;2022-09-14T17:40:38;1.30;;;1.23;;
4460;SDS011;2243;48.812;9.232;2022-09-14T17:43:10;2.63;;;1.60;;
4460;SDS011;2243;48.812;9.232;2022-09-14T17:45:50;9.93;;;2.27;;
4460;SDS011;2243;48.812;9.232;2022-09-14T17:48:26;4.00;;;2.93;;
4460;SDS011;2243;48.812;9.232;2022-09-14T17:51:03;3.83;;;1.90;;
4460;SDS011;2243;48.812;9.232;2022-09-14T17:53:45;2.60;;;2.40;;
4460;SDS011;2243;48.812;9.232;2022-09-14T17:56:21;3.57;;;1.63;;
4460;SDS011;2243;48.812;9.232;2022-09-14T17:58:56;3.60;;;2.00;;
4460;SDS011;2243;48.812;9.232;2022-09-14T18:01:34;3.40;;;2.30;;
4460;SDS011;2243;48.812;9.232;2022-09-14T18:04:08;2.90;;;2.10;;
4460;SDS011;2243;48.812;9.232;2022-09-14T18:06:43;1.83;;;1.73;;
4460;SDS011;2243;48.812;9.232;2022-09-14T18:09:18;1.97;;;1.70;;
4460;SDS011;2243;48.812;9.232;2022-09-14T18:11:53;7.10;;;2.17;;
4460;SDS011;2243;48.812;9.232;2022-09-14T18:14:26;3.10;;;1.73;;
4460;SDS011;2243;48.812;9.232;2022-09-14T18:16:57;4.27;;;2.40;;
4460;SDS011;2243;48.812;9.232;2022-09-14T18:19:29;2.70;;;1.73;;
4460;SDS011;2243;48.812;9.232;2022-09-14T18:22:00;3.00;;;2.40;;
4460;SDS011;2243;48.812;9.232;2022-09-14T18:24:31;3.30;;;3.00;;
4460;SDS011;2243;48.812;9.232;2022-09-14T18:27:02;2.83;;;2.57;;
4460;SDS011;2243;48.812;9.232;2022-09-14T18:29:33;3.47;;;2.73;;
4460;SDS011;2243;48.812;9.232;2022-09-14T18:32:05;3.97;;;2.40;;